sensor_id;sensor_type;location;lat;lon;timestamp;P1;durP1;ratioP1;P2;durP2;ratioP2
30998;SDS011;20549;50.042;8.968;2022-08-19T00:00:14;11.08;;;10.08;;
30998;SDS011;20549;50.042;8.968;2022-08-19T00:02:41;11.25;;;10.28;;
30998;SDS011;20549;50.042;8.968;2022-08-19T00:05:08;12.13;;;10.93;;
30998;SDS011;20549;50.042;8.968;2022-08-19T00:07:34;10.43;;;9.53;;
30998;SDS011;20549;50.042;8.968;2022-08-19T00:10:00;11.53;;;10.45;;
30998;SDS011;20549;50.042;8.968;2022-08-19T00:12:27;12.10;;;10.90;;
30998;SDS011;20549;50.042;8.968;2022-08-19T00:14:54;10.60;;;9.60;;
30998;SDS011;20549;50.042;8.968;2022-08-19T00:17:21;11.08;;;10.08;;
30998;SDS011;20549;50.042;8.968;2022-08-19T00:19:47;11.65;;;10.65;;
30998;SDS011;20549;50.042;8.968;2022-08-19T00:22:14;10.95;;;10.00;;
30998;SDS011;20549;50.042;8.968;2022-08-19T00:24:40;11.65;;;10.65;;
30998;SDS011;20549;50.042;8.968;2022-08-19T00:27:07;11.55;;;9.80;;
30998;SDS011;20549;50.042;8.968;2022-08-19T00:29:33;10.48;;;9.58;;
30998;SDS011;20549;50.042;8.968;2022-08-19T00:32:00;11.68;;;10.48;;
30998;SDS011;20549;50.042;8.968;2022-08-19T00:34:26;10.90;;;9.88;;
30998;SDS011;20549;50.042;8.968;2022-08-19T00:36:53;10.72;;;9.55;;
30998;SDS011;20549;50.042;8.968;2022-08-19T00:39:20;10.30;;;9.40;;
30998;SDS011;20549;50.042;8.968;2022-08-19T00:41:47;9.78;;;8.88;;
30998;SDS011;20549;50.042;8.968;2022-08-19T00:44:16;9.68;;;8.68;;
30998;SDS011;20549;50.042;8.968;2022-08-19T00:46:40;9.83;;;8.85;;
30998;SDS011;20549;50.042;8.968;2022-08-19T00:49:12;10.50;;;9.60;;
30998;SDS011;20549;50.042;8.968;2022-08-19T00:51:35;10.18;;;9.18;;
30998;SDS011;20549;50.042;8.968;2022-08-19T00:54:02;11.55;;;10.45;;
30998;SDS011;20549;50.042;8.968;2022-08-19T00:56:28;10.53;;;9.53;;
30998;SDS011;20549;50.042;8.968;2022-08-19T00:58:55;10.40;;;9.33;;
30998;SDS011;20549;50.042;8.968;2022-08-19T01:01:22;10.48;;;9.48;;
30998;SDS011;20549;50.042;8.968;2022-08-19T01:03:48;10.55;;;9.50;;
30998;SDS011;20549;50.042;8.968;2022-08-19T01:06:15;10.65;;;9.65;;
30998;SDS011;20549;50.042;8.968;2022-08-19T01:08:41;9.73;;;8.93;;
30998;SDS011;20549;50.042;8.968;2022-08-19T01:11:08;9.78;;;8.95;;
30998;SDS011;20549;50.042;8.968;2022-08-19T01:13:35;10.08;;;9.10;;
30998;SDS011;20549;50.042;8.968;2022-08-19T01:16:03;10.60;;;9.60;;
30998;SDS011;20549;50.042;8.968;2022-08-19T01:18:28;9.03;;;8.25;;
30998;SDS011;20549;50.042;8.968;2022-08-19T01:20:56;10.40;;;9.48;;
30998;SDS011;20549;50.042;8.968;2022-08-19T01:23:21;10.03;;;9.05;;
30998;SDS011;20549;50.042;8.968;2022-08-19T01:25:49;10.08;;;9.08;;
30998;SDS011;20549;50.042;8.968;2022-08-19T01:28:18;10.53;;;9.60;;
30998;SDS011;20549;50.042;8.968;2022-08-19T01:30:44;10.38;;;9.40;;
30998;SDS011;20549;50.042;8.968;2022-08-19T01:33:10;10.38;;;9.48;;
30998;SDS011;20549;50.042;8.968;2022-08-19T01:35:37;10.43;;;9.53;;
30998;SDS011;20549;50.042;8.968;2022-08-19T01:38:05;10.50;;;9.50;;
30998;SDS011;20549;50.042;8.968;2022-08-19T01:40:31;10.60;;;9.43;;
30998;SDS011;20549;50.042;8.968;2022-08-19T01:42:57;11.43;;;9.98;;
30998;SDS011;20549;50.042;8.968;2022-08-19T01:45:24;10.10;;;9.10;;
30998;SDS011;20549;50.042;8.968;2022-08-19T01:47:50;10.95;;;9.85;;
30998;SDS011;20549;50.042;8.968;2022-08-19T01:50:16;10.48;;;9.50;;
30998;SDS011;20549;50.042;8.968;2022-08-19T01:52:43;10.63;;;9.70;;
30998;SDS011;20549;50.042;8.968;2022-08-19T01:55:11;10.03;;;9.05;;
30998;SDS011;20549;50.042;8.968;2022-08-19T01:57:36;11.28;;;9.40;;
30998;SDS011;20549;50.042;8.968;2022-08-19T02:00:04;10.70;;;9.60;;
30998;SDS011;20549;50.042;8.968;2022-08-19T02:02:29;10.32;;;9.38;;
30998;SDS011;20549;50.042;8.968;2022-08-19T02:04:56;10.50;;;9.50;;
30998;SDS011;20549;50.042;8.968;2022-08-19T02:07:22;10.50;;;9.50;;
30998;SDS011;20549;50.042;8.968;2022-08-19T02:09:49;10.03;;;9.13;;
30998;SDS011;20549;50.042;8.968;2022-08-19T02:12:16;9.03;;;8.15;;
30998;SDS011;20549;50.042;8.968;2022-08-19T02:14:42;10.70;;;9.78;;
30998;SDS011;20549;50.042;8.968;2022-08-19T02:17:09;10.23;;;9.23;;
30998;SDS011;20549;50.042;8.968;2022-08-19T02:19:35;9.45;;;8.58;;
30998;SDS011;20549;50.042;8.968;2022-08-19T02:22:02;10.03;;;9.13;;
30998;SDS011;20549;50.042;8.968;2022-08-19T02:24:29;9.35;;;8.55;;
30998;SDS011;20549;50.042;8.968;2022-08-19T02:26:55;9.55;;;8.48;;
30998;SDS011;20549;50.042;8.968;2022-08-19T02:29:22;8.63;;;7.78;;
30998;SDS011;20549;50.042;8.968;2022-08-19T02:31:48;9.68;;;8.78;;
30998;SDS011;20549;50.042;8.968;2022-08-19T02:34:16;9.40;;;8.55;;
30998;SDS011;20549;50.042;8.968;2022-08-19T02:36:42;9.08;;;8.30;;
30998;SDS011;20549;50.042;8.968;2022-08-19T02:39:09;9.83;;;8.88;;
30998;SDS011;20549;50.042;8.968;2022-08-19T02:41:35;9.83;;;8.93;;
30998;SDS011;20549;50.042;8.968;2022-08-19T02:44:02;9.60;;;8.60;;
30998;SDS011;20549;50.042;8.968;2022-08-19T02:46:29;9.45;;;8.65;;
30998;SDS011;20549;50.042;8.968;2022-08-19T02:48:56;8.98;;;8.18;;
30998;SDS011;20549;50.042;8.968;2022-08-19T02:51:25;9.48;;;8.58;;
30998;SDS011;20549;50.042;8.968;2022-08-19T02:53:50;10.13;;;9.28;;
30998;SDS011;20549;50.042;8.968;2022-08-19T02:56:17;9.28;;;8.48;;
30998;SDS011;20549;50.042;8.968;2022-08-19T02:58:44;9.05;;;8.25;;
30998;SDS011;20549;50.042;8.968;2022-08-19T03:01:10;9.38;;;8.58;;
30998;SDS011;20549;50.042;8.968;2022-08-19T03:03:37;9.25;;;8.35;;
30998;SDS011;20549;50.042;8.968;2022-08-19T03:06:05;8.80;;;8.03;;
30998;SDS011;20549;50.042;8.968;2022-08-19T03:08:36;10.45;;;8.30;;
30998;SDS011;20549;50.042;8.968;2022-08-19T03:11:02;10.05;;;9.05;;
30998;SDS011;20549;50.042;8.968;2022-08-19T03:13:29;9.53;;;8.63;;
30998;SDS011;20549;50.042;8.968;2022-08-19T03:15:55;9.25;;;8.45;;
30998;SDS011;20549;50.042;8.968;2022-08-19T03:18:22;8.98;;;8.18;;
30998;SDS011;20549;50.042;8.968;2022-08-19T03:20:49;9.13;;;8.23;;
30998;SDS011;20549;50.042;8.968;2022-08-19T03:23:15;8.88;;;8.08;;
30998;SDS011;20549;50.042;8.968;2022-08-19T03:25:43;9.58;;;8.68;;
30998;SDS011;20549;50.042;8.968;2022-08-19T03:28:11;9.23;;;8.28;;
30998;SDS011;20549;50.042;8.968;2022-08-19T03:30:38;8.88;;;7.87;;
30998;SDS011;20549;50.042;8.968;2022-08-19T03:33:04;8.40;;;7.60;;
30998;SDS011;20549;50.042;8.968;2022-08-19T03:35:31;9.45;;;8.55;;
30998;SDS011;20549;50.042;8.968;2022-08-19T03:38:00;8.28;;;7.47;;
30998;SDS011;20549;50.042;8.968;2022-08-19T03:40:27;8.93;;;8.13;;
30998;SDS011;20549;50.042;8.968;2022-08-19T03:42:53;8.35;;;7.60;;
30998;SDS011;20549;50.042;8.968;2022-08-19T03:45:20;8.55;;;7.80;;
30998;SDS011;20549;50.042;8.968;2022-08-19T03:47:46;8.78;;;7.80;;
30998;SDS011;20549;50.042;8.968;2022-08-19T03:50:13;7.75;;;7.05;;
30998;SDS011;20549;50.042;8.968;2022-08-19T03:52:40;9.58;;;8.63;;
30998;SDS011;20549;50.042;8.968;2022-08-19T03:55:06;8.45;;;7.72;;
30998;SDS011;20549;50.042;8.968;2022-08-19T03:57:33;9.80;;;8.80;;
30998;SDS011;20549;50.042;8.968;2022-08-19T03:59:59;9.18;;;8.33;;
30998;SDS011;20549;50.042;8.968;2022-08-19T04:02:26;10.72;;;8.65;;
30998;SDS011;20549;50.042;8.968;2022-08-19T04:04:53;8.95;;;8.25;;
30998;SDS011;20549;50.042;8.968;2022-08-19T04:07:19;8.85;;;7.95;;
30998;SDS011;20549;50.042;8.968;2022-08-19T04:09:46;9.05;;;8.25;;
30998;SDS011;20549;50.042;8.968;2022-08-19T04:12:12;9.60;;;8.60;;
30998;SDS011;20549;50.042;8.968;2022-08-19T04:14:39;8.78;;;7.97;;
30998;SDS011;20549;50.042;8.968;2022-08-19T04:17:05;8.23;;;7.45;;
30998;SDS011;20549;50.042;8.968;2022-08-19T04:19:33;9.23;;;8.33;;
30998;SDS011;20549;50.042;8.968;2022-08-19T04:21:59;8.28;;;7.53;;
30998;SDS011;20549;50.042;8.968;2022-08-19T04:24:25;8.85;;;8.05;;
30998;SDS011;20549;50.042;8.968;2022-08-19T04:26:52;8.95;;;8.03;;
30998;SDS011;20549;50.042;8.968;2022-08-19T04:29:21;10.65;;;8.20;;
30998;SDS011;20549;50.042;8.968;2022-08-19T04:31:48;8.68;;;7.78;;
30998;SDS011;20549;50.042;8.968;2022-08-19T04:34:15;8.58;;;7.78;;
30998;SDS011;20549;50.042;8.968;2022-08-19T04:36:41;9.10;;;8.00;;
30998;SDS011;20549;50.042;8.968;2022-08-19T04:39:09;8.25;;;7.45;;
30998;SDS011;20549;50.042;8.968;2022-08-19T04:41:34;9.38;;;7.58;;
30998;SDS011;20549;50.042;8.968;2022-08-19T04:44:19;7.72;;;7.00;;
30998;SDS011;20549;50.042;8.968;2022-08-19T04:46:46;7.85;;;7.15;;
30998;SDS011;20549;50.042;8.968;2022-08-19T04:49:12;7.83;;;7.12;;
30998;SDS011;20549;50.042;8.968;2022-08-19T04:51:40;8.48;;;7.25;;
30998;SDS011;20549;50.042;8.968;2022-08-19T04:54:05;7.72;;;6.62;;
30998;SDS011;20549;50.042;8.968;2022-08-19T04:56:32;8.45;;;6.58;;
30998;SDS011;20549;50.042;8.968;2022-08-19T04:58:59;7.00;;;6.40;;
30998;SDS011;20549;50.042;8.968;2022-08-19T05:01:26;8.30;;;7.50;;
30998;SDS011;20549;50.042;8.968;2022-08-19T05:03:52;7.25;;;6.55;;
30998;SDS011;20549;50.042;8.968;2022-08-19T05:06:19;8.15;;;7.50;;
30998;SDS011;20549;50.042;8.968;2022-08-19T05:08:45;7.15;;;6.55;;
30998;SDS011;20549;50.042;8.968;2022-08-19T05:11:16;7.10;;;6.42;;
30998;SDS011;20549;50.042;8.968;2022-08-19T05:13:41;7.78;;;7.08;;
30998;SDS011;20549;50.042;8.968;2022-08-19T05:16:08;7.45;;;6.83;;
30998;SDS011;20549;50.042;8.968;2022-08-19T05:18:34;8.38;;;6.83;;
30998;SDS011;20549;50.042;8.968;2022-08-19T05:21:19;6.65;;;6.12;;
30998;SDS011;20549;50.042;8.968;2022-08-19T05:24:03;9.03;;;6.28;;
30998;SDS011;20549;50.042;8.968;2022-08-19T05:26:30;7.15;;;5.97;;
30998;SDS011;20549;50.042;8.968;2022-08-19T05:28:56;6.78;;;6.28;;
30998;SDS011;20549;50.042;8.968;2022-08-19T05:31:23;7.17;;;6.53;;
30998;SDS011;20549;50.042;8.968;2022-08-19T05:33:49;6.83;;;6.22;;
30998;SDS011;20549;50.042;8.968;2022-08-19T05:36:16;6.97;;;6.28;;
30998;SDS011;20549;50.042;8.968;2022-08-19T05:38:43;6.75;;;6.15;;
30998;SDS011;20549;50.042;8.968;2022-08-19T05:41:09;7.30;;;6.20;;
30998;SDS011;20549;50.042;8.968;2022-08-19T05:43:36;7.50;;;6.00;;
30998;SDS011;20549;50.042;8.968;2022-08-19T05:46:03;6.60;;;6.00;;
30998;SDS011;20549;50.042;8.968;2022-08-19T05:48:29;6.58;;;6.08;;
30998;SDS011;20549;50.042;8.968;2022-08-19T05:50:56;6.78;;;6.10;;
30998;SDS011;20549;50.042;8.968;2022-08-19T05:53:22;8.85;;;6.35;;
30998;SDS011;20549;50.042;8.968;2022-08-19T05:55:49;6.42;;;5.87;;
30998;SDS011;20549;50.042;8.968;2022-08-19T05:58:15;6.50;;;5.87;;
30998;SDS011;20549;50.042;8.968;2022-08-19T06:00:43;9.45;;;7.08;;
30998;SDS011;20549;50.042;8.968;2022-08-19T06:03:08;6.97;;;6.28;;
30998;SDS011;20549;50.042;8.968;2022-08-19T06:05:35;6.55;;;5.80;;
30998;SDS011;20549;50.042;8.968;2022-08-19T06:08:02;6.78;;;6.15;;
30998;SDS011;20549;50.042;8.968;2022-08-19T06:10:28;6.92;;;6.22;;
30998;SDS011;20549;50.042;8.968;2022-08-19T06:12:55;6.22;;;5.75;;
30998;SDS011;20549;50.042;8.968;2022-08-19T06:15:21;6.90;;;6.03;;
30998;SDS011;20549;50.042;8.968;2022-08-19T06:17:48;6.78;;;5.85;;
30998;SDS011;20549;50.042;8.968;2022-08-19T06:20:15;6.80;;;6.20;;
30998;SDS011;20549;50.042;8.968;2022-08-19T06:22:42;6.92;;;6.22;;
30998;SDS011;20549;50.042;8.968;2022-08-19T06:25:08;6.10;;;5.47;;
30998;SDS011;20549;50.042;8.968;2022-08-19T06:27:37;6.45;;;5.85;;
30998;SDS011;20549;50.042;8.968;2022-08-19T06:30:04;6.65;;;6.15;;
30998;SDS011;20549;50.042;8.968;2022-08-19T06:32:30;6.00;;;5.50;;
30998;SDS011;20549;50.042;8.968;2022-08-19T06:34:57;10.13;;;6.03;;
30998;SDS011;20549;50.042;8.968;2022-08-19T06:37:24;7.20;;;6.30;;
30998;SDS011;20549;50.042;8.968;2022-08-19T06:39:50;7.90;;;6.30;;
30998;SDS011;20549;50.042;8.968;2022-08-19T06:42:17;6.92;;;6.00;;
30998;SDS011;20549;50.042;8.968;2022-08-19T06:44:44;6.97;;;6.28;;
30998;SDS011;20549;50.042;8.968;2022-08-19T06:47:11;6.70;;;6.05;;
30998;SDS011;20549;50.042;8.968;2022-08-19T06:49:37;8.00;;;6.62;;
30998;SDS011;20549;50.042;8.968;2022-08-19T06:52:04;6.65;;;6.05;;
30998;SDS011;20549;50.042;8.968;2022-08-19T06:54:30;6.62;;;5.85;;
30998;SDS011;20549;50.042;8.968;2022-08-19T06:56:57;6.00;;;5.50;;
30998;SDS011;20549;50.042;8.968;2022-08-19T06:59:23;6.35;;;5.85;;
30998;SDS011;20549;50.042;8.968;2022-08-19T07:01:51;6.10;;;5.42;;
30998;SDS011;20549;50.042;8.968;2022-08-19T07:04:18;5.75;;;5.35;;
30998;SDS011;20549;50.042;8.968;2022-08-19T07:06:43;5.55;;;5.15;;
30998;SDS011;20549;50.042;8.968;2022-08-19T07:09:10;5.65;;;5.17;;
30998;SDS011;20549;50.042;8.968;2022-08-19T07:11:36;5.95;;;5.45;;
30998;SDS011;20549;50.042;8.968;2022-08-19T07:14:02;5.60;;;5.20;;
30998;SDS011;20549;50.042;8.968;2022-08-19T07:16:29;6.05;;;5.45;;
30998;SDS011;20549;50.042;8.968;2022-08-19T07:18:56;5.95;;;5.35;;
30998;SDS011;20549;50.042;8.968;2022-08-19T07:21:24;5.87;;;5.37;;
30998;SDS011;20549;50.042;8.968;2022-08-19T07:23:49;7.67;;;5.90;;
30998;SDS011;20549;50.042;8.968;2022-08-19T07:26:17;5.78;;;5.15;;
30998;SDS011;20549;50.042;8.968;2022-08-19T07:28:45;5.72;;;5.22;;
30998;SDS011;20549;50.042;8.968;2022-08-19T07:31:12;6.05;;;4.97;;
30998;SDS011;20549;50.042;8.968;2022-08-19T07:33:41;5.78;;;5.28;;
30998;SDS011;20549;50.042;8.968;2022-08-19T07:36:07;5.67;;;5.10;;
30998;SDS011;20549;50.042;8.968;2022-08-19T07:38:34;5.60;;;5.10;;
30998;SDS011;20549;50.042;8.968;2022-08-19T07:41:00;6.45;;;5.78;;
30998;SDS011;20549;50.042;8.968;2022-08-19T07:43:27;5.95;;;5.33;;
30998;SDS011;20549;50.042;8.968;2022-08-19T07:45:54;5.22;;;4.80;;
30998;SDS011;20549;50.042;8.968;2022-08-19T07:48:20;5.78;;;5.20;;
30998;SDS011;20549;50.042;8.968;2022-08-19T07:50:47;4.87;;;4.35;;
30998;SDS011;20549;50.042;8.968;2022-08-19T07:53:13;5.10;;;4.60;;
30998;SDS011;20549;50.042;8.968;2022-08-19T07:55:40;4.75;;;3.98;;
30998;SDS011;20549;50.042;8.968;2022-08-19T07:58:06;4.80;;;4.40;;
30998;SDS011;20549;50.042;8.968;2022-08-19T08:00:33;4.50;;;4.10;;
30998;SDS011;20549;50.042;8.968;2022-08-19T08:03:00;4.47;;;3.98;;
30998;SDS011;20549;50.042;8.968;2022-08-19T08:05:26;3.95;;;3.65;;
30998;SDS011;20549;50.042;8.968;2022-08-19T08:08:11;6.30;;;4.33;;
30998;SDS011;20549;50.042;8.968;2022-08-19T08:10:55;5.65;;;4.33;;
30998;SDS011;20549;50.042;8.968;2022-08-19T08:13:22;4.05;;;3.67;;
30998;SDS011;20549;50.042;8.968;2022-08-19T08:15:49;3.98;;;3.58;;
30998;SDS011;20549;50.042;8.968;2022-08-19T08:18:15;6.08;;;4.00;;
30998;SDS011;20549;50.042;8.968;2022-08-19T08:20:42;3.58;;;3.27;;
30998;SDS011;20549;50.042;8.968;2022-08-19T08:23:08;3.60;;;3.17;;
30998;SDS011;20549;50.042;8.968;2022-08-19T08:25:55;3.40;;;3.10;;
30998;SDS011;20549;50.042;8.968;2022-08-19T08:28:20;4.33;;;3.35;;
30998;SDS011;20549;50.042;8.968;2022-08-19T08:30:47;3.90;;;3.60;;
30998;SDS011;20549;50.042;8.968;2022-08-19T08:33:14;3.95;;;3.62;;
30998;SDS011;20549;50.042;8.968;2022-08-19T08:35:40;3.55;;;3.00;;
30998;SDS011;20549;50.042;8.968;2022-08-19T08:38:06;4.28;;;3.35;;
30998;SDS011;20549;50.042;8.968;2022-08-19T08:43:20;3.40;;;3.08;;
30998;SDS011;20549;50.042;8.968;2022-08-19T08:45:52;4.08;;;3.22;;
30998;SDS011;20549;50.042;8.968;2022-08-19T08:48:37;2.98;;;2.77;;
30998;SDS011;20549;50.042;8.968;2022-08-19T08:51:05;3.30;;;3.00;;
30998;SDS011;20549;50.042;8.968;2022-08-19T08:53:31;3.47;;;3.17;;
30998;SDS011;20549;50.042;8.968;2022-08-19T08:55:57;3.58;;;2.98;;
30998;SDS011;20549;50.042;8.968;2022-08-19T08:58:25;3.40;;;2.90;;
30998;SDS011;20549;50.042;8.968;2022-08-19T09:00:50;3.60;;;3.30;;
30998;SDS011;20549;50.042;8.968;2022-08-19T09:08:27;2.55;;;2.35;;
30998;SDS011;20549;50.042;8.968;2022-08-19T09:10:49;2.72;;;2.52;;
30998;SDS011;20549;50.042;8.968;2022-08-19T09:16:05;2.40;;;2.30;;
30998;SDS011;20549;50.042;8.968;2022-08-19T09:18:40;2.10;;;2.00;;
30998;SDS011;20549;50.042;8.968;2022-08-19T09:21:05;2.05;;;1.85;;
30998;SDS011;20549;50.042;8.968;2022-08-19T09:23:32;2.20;;;1.77;;
30998;SDS011;20549;50.042;8.968;2022-08-19T09:25:58;2.50;;;2.02;;
30998;SDS011;20549;50.042;8.968;2022-08-19T09:28:25;3.52;;;2.02;;
30998;SDS011;20549;50.042;8.968;2022-08-19T09:30:52;3.08;;;2.00;;
30998;SDS011;20549;50.042;8.968;2022-08-19T09:33:18;2.37;;;2.17;;
30998;SDS011;20549;50.042;8.968;2022-08-19T09:35:45;2.17;;;1.98;;
30998;SDS011;20549;50.042;8.968;2022-08-19T09:38:11;2.22;;;2.10;;
30998;SDS011;20549;50.042;8.968;2022-08-19T09:40:38;2.25;;;2.15;;
30998;SDS011;20549;50.042;8.968;2022-08-19T09:43:05;1.95;;;1.85;;
30998;SDS011;20549;50.042;8.968;2022-08-19T09:45:31;2.08;;;1.90;;
30998;SDS011;20549;50.042;8.968;2022-08-19T09:47:58;2.15;;;1.95;;
30998;SDS011;20549;50.042;8.968;2022-08-19T09:50:24;2.58;;;2.37;;
30998;SDS011;20549;50.042;8.968;2022-08-19T09:52:51;3.95;;;1.98;;
30998;SDS011;20549;50.042;8.968;2022-08-19T09:55:18;2.67;;;2.05;;
30998;SDS011;20549;50.042;8.968;2022-08-19T09:57:44;3.10;;;2.25;;
30998;SDS011;20549;50.042;8.968;2022-08-19T10:00:11;2.50;;;2.30;;
30998;SDS011;20549;50.042;8.968;2022-08-19T10:02:37;2.45;;;2.25;;
30998;SDS011;20549;50.042;8.968;2022-08-19T10:05:04;3.92;;;2.40;;
30998;SDS011;20549;50.042;8.968;2022-08-19T10:07:49;3.65;;;2.02;;
30998;SDS011;20549;50.042;8.968;2022-08-19T10:10:15;2.40;;;2.20;;
30998;SDS011;20549;50.042;8.968;2022-08-19T10:12:42;3.87;;;2.42;;
30998;SDS011;20549;50.042;8.968;2022-08-19T10:15:08;2.20;;;2.00;;
30998;SDS011;20549;50.042;8.968;2022-08-19T10:17:35;2.58;;;2.37;;
30998;SDS011;20549;50.042;8.968;2022-08-19T10:20:02;2.33;;;2.20;;
30998;SDS011;20549;50.042;8.968;2022-08-19T10:22:28;2.30;;;2.10;;
30998;SDS011;20549;50.042;8.968;2022-08-19T10:24:55;2.35;;;2.22;;
30998;SDS011;20549;50.042;8.968;2022-08-19T10:27:22;3.45;;;2.22;;
30998;SDS011;20549;50.042;8.968;2022-08-19T10:29:48;3.60;;;2.20;;
30998;SDS011;20549;50.042;8.968;2022-08-19T10:32:15;2.37;;;2.17;;
30998;SDS011;20549;50.042;8.968;2022-08-19T10:34:41;2.37;;;2.20;;
30998;SDS011;20549;50.042;8.968;2022-08-19T10:37:08;2.72;;;2.52;;
30998;SDS011;20549;50.042;8.968;2022-08-19T10:39:35;2.75;;;2.55;;
30998;SDS011;20549;50.042;8.968;2022-08-19T10:42:07;3.08;;;2.60;;
30998;SDS011;20549;50.042;8.968;2022-08-19T10:44:34;2.75;;;2.55;;
30998;SDS011;20549;50.042;8.968;2022-08-19T10:47:01;2.70;;;2.42;;
30998;SDS011;20549;50.042;8.968;2022-08-19T10:49:27;4.03;;;2.55;;
30998;SDS011;20549;50.042;8.968;2022-08-19T10:51:54;3.08;;;2.87;;
30998;SDS011;20549;50.042;8.968;2022-08-19T10:54:38;4.37;;;2.80;;
30998;SDS011;20549;50.042;8.968;2022-08-19T10:57:23;2.45;;;2.22;;
30998;SDS011;20549;50.042;8.968;2022-08-19T10:59:49;3.25;;;2.37;;
30998;SDS011;20549;50.042;8.968;2022-08-19T11:02:16;2.58;;;2.35;;
30998;SDS011;20549;50.042;8.968;2022-08-19T11:04:42;2.08;;;1.98;;
30998;SDS011;20549;50.042;8.968;2022-08-19T11:07:09;2.40;;;2.30;;
30998;SDS011;20549;50.042;8.968;2022-08-19T11:09:37;2.52;;;2.22;;
30998;SDS011;20549;50.042;8.968;2022-08-19T11:12:02;5.28;;;2.40;;
30998;SDS011;20549;50.042;8.968;2022-08-19T11:14:29;2.58;;;2.37;;
30998;SDS011;20549;50.042;8.968;2022-08-19T11:16:56;2.55;;;2.35;;
30998;SDS011;20549;50.042;8.968;2022-08-19T11:19:22;2.95;;;2.30;;
30998;SDS011;20549;50.042;8.968;2022-08-19T11:21:49;2.55;;;2.35;;
30998;SDS011;20549;50.042;8.968;2022-08-19T11:24:19;2.50;;;2.30;;
30998;SDS011;20549;50.042;8.968;2022-08-19T11:26:45;2.50;;;2.30;;
30998;SDS011;20549;50.042;8.968;2022-08-19T11:29:12;2.15;;;2.05;;
30998;SDS011;20549;50.042;8.968;2022-08-19T11:31:39;2.42;;;2.30;;
30998;SDS011;20549;50.042;8.968;2022-08-19T11:34:08;2.60;;;2.40;;
30998;SDS011;20549;50.042;8.968;2022-08-19T11:36:34;2.52;;;2.33;;
30998;SDS011;20549;50.042;8.968;2022-08-19T11:39:00;3.02;;;2.80;;
30998;SDS011;20549;50.042;8.968;2022-08-19T11:41:27;2.87;;;2.67;;
30998;SDS011;20549;50.042;8.968;2022-08-19T11:43:54;2.92;;;2.72;;
30998;SDS011;20549;50.042;8.968;2022-08-19T11:46:21;2.35;;;2.25;;
30998;SDS011;20549;50.042;8.968;2022-08-19T11:48:47;4.42;;;2.10;;
30998;SDS011;20549;50.042;8.968;2022-08-19T11:51:15;3.70;;;2.33;;
30998;SDS011;20549;50.042;8.968;2022-08-19T11:53:40;2.77;;;2.30;;
30998;SDS011;20549;50.042;8.968;2022-08-19T11:56:07;3.75;;;2.58;;
30998;SDS011;20549;50.042;8.968;2022-08-19T11:58:33;2.60;;;2.40;;
30998;SDS011;20549;50.042;8.968;2022-08-19T12:01:00;2.90;;;2.50;;
30998;SDS011;20549;50.042;8.968;2022-08-19T12:03:26;2.77;;;2.15;;
30998;SDS011;20549;50.042;8.968;2022-08-19T12:05:53;2.22;;;2.02;;
30998;SDS011;20549;50.042;8.968;2022-08-19T12:08:19;2.02;;;1.92;;
30998;SDS011;20549;50.042;8.968;2022-08-19T12:10:46;2.00;;;1.90;;
30998;SDS011;20549;50.042;8.968;2022-08-19T12:13:13;2.25;;;2.08;;
30998;SDS011;20549;50.042;8.968;2022-08-19T12:15:42;2.42;;;2.27;;
30998;SDS011;20549;50.042;8.968;2022-08-19T12:18:08;2.10;;;2.00;;
30998;SDS011;20549;50.042;8.968;2022-08-19T12:20:36;1.75;;;1.65;;
30998;SDS011;20549;50.042;8.968;2022-08-19T12:23:02;2.10;;;2.00;;
30998;SDS011;20549;50.042;8.968;2022-08-19T12:25:28;2.62;;;2.42;;
30998;SDS011;20549;50.042;8.968;2022-08-19T12:27:55;2.30;;;2.20;;
30998;SDS011;20549;50.042;8.968;2022-08-19T12:30:21;2.35;;;2.25;;
30998;SDS011;20549;50.042;8.968;2022-08-19T12:32:48;2.10;;;2.00;;
30998;SDS011;20549;50.042;8.968;2022-08-19T12:35:14;2.10;;;2.00;;
30998;SDS011;20549;50.042;8.968;2022-08-19T12:37:41;2.00;;;1.90;;
30998;SDS011;20549;50.042;8.968;2022-08-19T12:40:08;2.42;;;2.22;;
30998;SDS011;20549;50.042;8.968;2022-08-19T12:42:34;2.70;;;2.50;;
30998;SDS011;20549;50.042;8.968;2022-08-19T12:45:01;2.72;;;2.52;;
30998;SDS011;20549;50.042;8.968;2022-08-19T12:47:28;2.52;;;2.30;;
30998;SDS011;20549;50.042;8.968;2022-08-19T12:49:54;2.60;;;2.40;;
30998;SDS011;20549;50.042;8.968;2022-08-19T12:52:24;3.90;;;2.45;;
30998;SDS011;20549;50.042;8.968;2022-08-19T12:54:51;2.20;;;2.08;;
30998;SDS011;20549;50.042;8.968;2022-08-19T12:57:17;2.12;;;2.02;;
30998;SDS011;20549;50.042;8.968;2022-08-19T12:59:43;2.52;;;2.40;;
30998;SDS011;20549;50.042;8.968;2022-08-19T13:02:10;2.50;;;2.30;;
30998;SDS011;20549;50.042;8.968;2022-08-19T13:04:37;2.37;;;2.27;;
30998;SDS011;20549;50.042;8.968;2022-08-19T13:07:03;6.53;;;2.72;;
30998;SDS011;20549;50.042;8.968;2022-08-19T13:09:30;2.85;;;2.40;;
30998;SDS011;20549;50.042;8.968;2022-08-19T13:11:56;2.70;;;2.58;;
30998;SDS011;20549;50.042;8.968;2022-08-19T13:14:23;2.92;;;2.55;;
30998;SDS011;20549;50.042;8.968;2022-08-19T13:16:50;3.10;;;2.50;;
30998;SDS011;20549;50.042;8.968;2022-08-19T13:19:16;2.60;;;2.40;;
30998;SDS011;20549;50.042;8.968;2022-08-19T13:21:43;3.83;;;2.00;;
30998;SDS011;20549;50.042;8.968;2022-08-19T13:24:09;2.20;;;2.00;;
30998;SDS011;20549;50.042;8.968;2022-08-19T13:26:36;2.75;;;2.55;;
30998;SDS011;20549;50.042;8.968;2022-08-19T13:29:03;2.75;;;2.55;;
30998;SDS011;20549;50.042;8.968;2022-08-19T13:31:47;2.87;;;2.67;;
30998;SDS011;20549;50.042;8.968;2022-08-19T13:34:33;2.90;;;2.70;;
30998;SDS011;20549;50.042;8.968;2022-08-19T13:36:59;3.12;;;2.85;;
30998;SDS011;20549;50.042;8.968;2022-08-19T13:39:25;3.50;;;3.30;;
30998;SDS011;20549;50.042;8.968;2022-08-19T13:41:52;3.15;;;2.95;;
30998;SDS011;20549;50.042;8.968;2022-08-19T13:44:18;3.47;;;3.20;;
30998;SDS011;20549;50.042;8.968;2022-08-19T13:46:45;3.37;;;3.17;;
30998;SDS011;20549;50.042;8.968;2022-08-19T13:49:12;3.50;;;3.30;;
30998;SDS011;20549;50.042;8.968;2022-08-19T13:51:41;3.58;;;3.27;;
30998;SDS011;20549;50.042;8.968;2022-08-19T13:54:08;3.47;;;3.27;;
30998;SDS011;20549;50.042;8.968;2022-08-19T13:56:34;3.50;;;3.30;;
30998;SDS011;20549;50.042;8.968;2022-08-19T13:59:01;3.80;;;3.60;;
30998;SDS011;20549;50.042;8.968;2022-08-19T14:01:27;3.62;;;3.40;;
30998;SDS011;20549;50.042;8.968;2022-08-19T14:03:54;3.50;;;3.20;;
30998;SDS011;20549;50.042;8.968;2022-08-19T14:06:20;3.37;;;3.17;;
30998;SDS011;20549;50.042;8.968;2022-08-19T14:08:47;3.40;;;3.12;;
30998;SDS011;20549;50.042;8.968;2022-08-19T14:11:14;3.60;;;3.40;;
30998;SDS011;20549;50.042;8.968;2022-08-19T14:13:40;3.55;;;3.35;;
30998;SDS011;20549;50.042;8.968;2022-08-19T14:16:10;3.17;;;2.98;;
30998;SDS011;20549;50.042;8.968;2022-08-19T14:18:33;3.35;;;3.15;;
30998;SDS011;20549;50.042;8.968;2022-08-19T14:21:00;3.55;;;3.27;;
30998;SDS011;20549;50.042;8.968;2022-08-19T14:23:26;3.83;;;3.55;;
30998;SDS011;20549;50.042;8.968;2022-08-19T14:25:53;3.80;;;3.50;;
30998;SDS011;20549;50.042;8.968;2022-08-19T14:28:20;3.77;;;3.47;;
30998;SDS011;20549;50.042;8.968;2022-08-19T14:30:46;3.70;;;3.50;;
30998;SDS011;20549;50.042;8.968;2022-08-19T14:33:13;6.05;;;4.50;;
30998;SDS011;20549;50.042;8.968;2022-08-19T14:35:39;4.40;;;4.10;;
30998;SDS011;20549;50.042;8.968;2022-08-19T14:38:06;4.42;;;4.12;;
30998;SDS011;20549;50.042;8.968;2022-08-19T14:40:33;4.47;;;4.17;;
30998;SDS011;20549;50.042;8.968;2022-08-19T14:43:00;4.33;;;4.03;;
30998;SDS011;20549;50.042;8.968;2022-08-19T14:45:27;4.03;;;3.72;;
30998;SDS011;20549;50.042;8.968;2022-08-19T14:47:52;4.08;;;3.55;;
30998;SDS011;20549;50.042;8.968;2022-08-19T14:50:19;3.87;;;3.60;;
30998;SDS011;20549;50.042;8.968;2022-08-19T14:52:46;3.60;;;3.40;;
30998;SDS011;20549;50.042;8.968;2022-08-19T14:55:12;4.78;;;4.08;;